sensor_id;sensor_type;location;lat;lon;timestamp;temperature;humidity
72604;DHT22;60645;56.968;24.196;2022-09-09T00:02:02;8.40;77.10
72604;DHT22;60645;56.968;24.196;2022-09-09T00:04:35;8.50;77.00
72604;DHT22;60645;56.968;24.196;2022-09-09T00:07:25;8.40;77.40
72604;DHT22;60645;56.968;24.196;2022-09-09T00:15:11;8.30;77.50
72604;DHT22;60645;56.968;24.196;2022-09-09T00:17:53;8.30;77.60
72604;DHT22;60645;56.968;24.196;2022-09-09T00:20:39;8.30;77.70
72604;DHT22;60645;56.968;24.196;2022-09-09T00:23:25;8.30;77.40
72604;DHT22;60645;56.968;24.196;2022-09-09T00:26:02;8.30;77.70
72604;DHT22;60645;56.968;24.196;2022-09-09T00:28:33;8.20;77.60
72604;DHT22;60645;56.968;24.196;2022-09-09T00:31:13;8.30;77.70
72604;DHT22;60645;56.968;24.196;2022-09-09T00:33:40;8.20;77.60
72604;DHT22;60645;56.968;24.196;2022-09-09T00:36:14;8.30;77.80
72604;DHT22;60645;56.968;24.196;2022-09-09T00:38:48;8.20;77.90
72604;DHT22;60645;56.968;24.196;2022-09-09T00:44:32;8.10;78.10
72604;DHT22;60645;56.968;24.196;2022-09-09T00:54:55;8.00;78.10
72604;DHT22;60645;56.968;24.196;2022-09-09T00:57:33;8.00;78.20
72604;DHT22;60645;56.968;24.196;2022-09-09T01:02:53;7.90;78.40
72604;DHT22;60645;56.968;24.196;2022-09-09T01:05:51;8.00;78.50
72604;DHT22;60645;56.968;24.196;2022-09-09T01:10:54;8.00;78.60
72604;DHT22;60645;56.968;24.196;2022-09-09T01:13:30;8.00;78.70
72604;DHT22;60645;56.968;24.196;2022-09-09T01:16:04;8.00;78.70
72604;DHT22;60645;56.968;24.196;2022-09-09T01:18:46;7.80;78.80
72604;DHT22;60645;56.968;24.196;2022-09-09T01:21:30;7.90;79.00
72604;DHT22;60645;56.968;24.196;2022-09-09T01:26:46;7.90;79.20
72604;DHT22;60645;56.968;24.196;2022-09-09T01:29:16;7.80;79.40
72604;DHT22;60645;56.968;24.196;2022-09-09T01:31:56;7.70;79.40
72604;DHT22;60645;56.968;24.196;2022-09-09T01:34:27;7.60;79.50
72604;DHT22;60645;56.968;24.196;2022-09-09T01:39:35;7.70;79.30
72604;DHT22;60645;56.968;24.196;2022-09-09T01:42:04;7.70;79.70
72604;DHT22;60645;56.968;24.196;2022-09-09T01:44:33;7.50;79.60
72604;DHT22;60645;56.968;24.196;2022-09-09T01:47:00;7.70;79.60
72604;DHT22;60645;56.968;24.196;2022-09-09T01:49:27;7.60;79.70
72604;DHT22;60645;56.968;24.196;2022-09-09T01:51:55;7.50;79.90
72604;DHT22;60645;56.968;24.196;2022-09-09T01:54:26;7.60;80.10
72604;DHT22;60645;56.968;24.196;2022-09-09T01:59:48;7.50;80.30
72604;DHT22;60645;56.968;24.196;2022-09-09T02:04:54;7.50;80.40
72604;DHT22;60645;56.968;24.196;2022-09-09T02:13:12;7.50;80.80
72604;DHT22;60645;56.968;24.196;2022-09-09T02:15:53;7.30;80.90
72604;DHT22;60645;56.968;24.196;2022-09-09T02:21:18;7.40;80.70
72604;DHT22;60645;56.968;24.196;2022-09-09T02:23:47;7.10;81.10
72604;DHT22;60645;56.968;24.196;2022-09-09T02:26:19;7.20;81.20
72604;DHT22;60645;56.968;24.196;2022-09-09T02:28:51;7.20;81.40
72604;DHT22;60645;56.968;24.196;2022-09-09T02:31:22;7.10;81.30
72604;DHT22;60645;56.968;24.196;2022-09-09T02:33:54;7.20;81.30
72604;DHT22;60645;56.968;24.196;2022-09-09T02:36:24;7.10;81.70
72604;DHT22;60645;56.968;24.196;2022-09-09T02:38:51;7.00;82.10
72604;DHT22;60645;56.968;24.196;2022-09-09T02:41:24;7.00;81.80
72604;DHT22;60645;56.968;24.196;2022-09-09T02:43:52;6.90;81.90
72604;DHT22;60645;56.968;24.196;2022-09-09T02:49:43;7.00;82.20
72604;DHT22;60645;56.968;24.196;2022-09-09T02:52:26;6.70;82.70
72604;DHT22;60645;56.968;24.196;2022-09-09T02:54:59;6.90;82.40
72604;DHT22;60645;56.968;24.196;2022-09-09T02:57:33;6.70;82.70
72604;DHT22;60645;56.968;24.196;2022-09-09T03:00:01;6.80;82.70
72604;DHT22;60645;56.968;24.196;2022-09-09T03:02:28;6.80;82.90
72604;DHT22;60645;56.968;24.196;2022-09-09T03:04:55;6.80;83.00
72604;DHT22;60645;56.968;24.196;2022-09-09T03:07:22;6.80;82.80
72604;DHT22;60645;56.968;24.196;2022-09-09T03:09:49;6.70;82.90
72604;DHT22;60645;56.968;24.196;2022-09-09T03:12:15;6.80;82.90
72604;DHT22;60645;56.968;24.196;2022-09-09T03:14:43;6.70;83.30
72604;DHT22;60645;56.968;24.196;2022-09-09T03:17:12;6.80;83.00
72604;DHT22;60645;56.968;24.196;2022-09-09T03:19:39;6.90;82.90
72604;DHT22;60645;56.968;24.196;2022-09-09T03:22:07;6.70;82.90
72604;DHT22;60645;56.968;24.196;2022-09-09T03:24:34;6.80;83.20
72604;DHT22;60645;56.968;24.196;2022-09-09T03:27:01;6.70;83.30
72604;DHT22;60645;56.968;24.196;2022-09-09T03:29:28;6.70;83.80
72604;DHT22;60645;56.968;24.196;2022-09-09T03:31:55;6.60;83.60
72604;DHT22;60645;56.968;24.196;2022-09-09T03:34:22;6.50;83.50
72604;DHT22;60645;56.968;24.196;2022-09-09T03:36:49;6.50;83.50
72604;DHT22;60645;56.968;24.196;2022-09-09T03:39:16;6.70;83.50
72604;DHT22;60645;56.968;24.196;2022-09-09T03:41:42;6.60;83.60
72604;DHT22;60645;56.968;24.196;2022-09-09T03:44:11;6.50;83.30
72604;DHT22;60645;56.968;24.196;2022-09-09T03:46:38;6.80;83.40
72604;DHT22;60645;56.968;24.196;2022-09-09T03:49:05;6.70;83.60
72604;DHT22;60645;56.968;24.196;2022-09-09T03:51:32;6.70;83.60
72604;DHT22;60645;56.968;24.196;2022-09-09T03:54:03;6.70;83.90
72604;DHT22;60645;56.968;24.196;2022-09-09T03:56:31;6.70;83.70
72604;DHT22;60645;56.968;24.196;2022-09-09T03:58:58;6.80;83.30
72604;DHT22;60645;56.968;24.196;2022-09-09T04:01:25;7.00;82.90
72604;DHT22;60645;56.968;24.196;2022-09-09T04:03:52;7.00;82.70
72604;DHT22;60645;56.968;24.196;2022-09-09T04:06:19;7.00;82.30
72604;DHT22;60645;56.968;24.196;2022-09-09T04:08:47;7.10;82.40
72604;DHT22;60645;56.968;24.196;2022-09-09T04:11:15;7.30;81.80
72604;DHT22;60645;56.968;24.196;2022-09-09T04:13:42;7.40;81.50
72604;DHT22;60645;56.968;24.196;2022-09-09T04:16:11;7.60;80.80
72604;DHT22;60645;56.968;24.196;2022-09-09T04:18:40;7.70;80.70
72604;DHT22;60645;56.968;24.196;2022-09-09T04:21:08;7.80;80.00
72604;DHT22;60645;56.968;24.196;2022-09-09T04:23:35;8.00;79.40
72604;DHT22;60645;56.968;24.196;2022-09-09T04:26:04;8.20;79.10
72604;DHT22;60645;56.968;24.196;2022-09-09T04:28:34;8.30;78.30
72604;DHT22;60645;56.968;24.196;2022-09-09T04:31:07;8.60;77.70
72604;DHT22;60645;56.968;24.196;2022-09-09T04:33:34;8.70;76.90
72604;DHT22;60645;56.968;24.196;2022-09-09T04:36:06;9.00;76.50
72604;DHT22;60645;56.968;24.196;2022-09-09T04:38:33;9.10;75.40
72604;DHT22;60645;56.968;24.196;2022-09-09T04:41:00;9.50;74.00
72604;DHT22;60645;56.968;24.196;2022-09-09T04:43:28;9.60;73.30
72604;DHT22;60645;56.968;24.196;2022-09-09T04:45:54;10.00;72.20
72604;DHT22;60645;56.968;24.196;2022-09-09T04:48:22;10.30;71.60
72604;DHT22;60645;56.968;24.196;2022-09-09T04:51:06;10.60;70.20
72604;DHT22;60645;56.968;24.196;2022-09-09T04:53:35;10.80;70.00
72604;DHT22;60645;56.968;24.196;2022-09-09T04:56:08;11.20;68.80
72604;DHT22;60645;56.968;24.196;2022-09-09T04:58:37;11.80;67.10
72604;DHT22;60645;56.968;24.196;2022-09-09T05:01:20;12.20;65.60
72604;DHT22;60645;56.968;24.196;2022-09-09T05:03:48;12.60;64.60
72604;DHT22;60645;56.968;24.196;2022-09-09T05:06:17;12.90;62.60
72604;DHT22;60645;56.968;24.196;2022-09-09T05:08:44;13.10;62.00
72604;DHT22;60645;56.968;24.196;2022-09-09T05:11:25;13.40;61.40
72604;DHT22;60645;56.968;24.196;2022-09-09T05:13:53;13.70;60.30
72604;DHT22;60645;56.968;24.196;2022-09-09T05:16:21;14.00;59.30
72604;DHT22;60645;56.968;24.196;2022-09-09T05:18:49;14.30;58.30
72604;DHT22;60645;56.968;24.196;2022-09-09T05:21:19;14.50;58.00
72604;DHT22;60645;56.968;24.196;2022-09-09T05:23:46;14.80;56.80
72604;DHT22;60645;56.968;24.196;2022-09-09T05:26:15;15.10;56.00
72604;DHT22;60645;56.968;24.196;2022-09-09T05:28:44;15.30;55.80
72604;DHT22;60645;56.968;24.196;2022-09-09T05:31:12;15.40;54.60
72604;DHT22;60645;56.968;24.196;2022-09-09T05:33:43;15.80;54.10
72604;DHT22;60645;56.968;24.196;2022-09-09T05:36:17;16.00;52.70
72604;DHT22;60645;56.968;24.196;2022-09-09T05:38:45;16.40;52.50
72604;DHT22;60645;56.968;24.196;2022-09-09T05:41:12;16.40;51.80
72604;DHT22;60645;56.968;24.196;2022-09-09T05:43:42;16.70;51.30
72604;DHT22;60645;56.968;24.196;2022-09-09T05:46:15;17.10;50.70
72604;DHT22;60645;56.968;24.196;2022-09-09T05:48:44;17.20;50.20
72604;DHT22;60645;56.968;24.196;2022-09-09T05:51:15;17.40;49.90
72604;DHT22;60645;56.968;24.196;2022-09-09T05:53:42;18.10;48.90
72604;DHT22;60645;56.968;24.196;2022-09-09T05:56:12;18.30;48.20
72604;DHT22;60645;56.968;24.196;2022-09-09T05:58:41;18.80;46.70
72604;DHT22;60645;56.968;24.196;2022-09-09T06:01:13;19.00;46.70
72604;DHT22;60645;56.968;24.196;2022-09-09T06:03:41;19.30;45.80
72604;DHT22;60645;56.968;24.196;2022-09-09T06:06:16;19.60;45.10
72604;DHT22;60645;56.968;24.196;2022-09-09T19:58:51;13.00;64.10
72604;DHT22;60645;56.968;24.196;2022-09-09T20:01:21;13.00;63.90
72604;DHT22;60645;56.968;24.196;2022-09-09T20:03:49;12.90;64.30
72604;DHT22;60645;56.968;24.196;2022-09-09T20:06:20;12.80;64.90
72604;DHT22;60645;56.968;24.196;2022-09-09T20:08:49;12.70;64.70
72604;DHT22;60645;56.968;24.196;2022-09-09T20:11:16;12.80;64.70
72604;DHT22;60645;56.968;24.196;2022-09-09T20:13:43;12.80;65.50
72604;DHT22;60645;56.968;24.196;2022-09-09T20:16:15;13.10;65.50
72604;DHT22;60645;56.968;24.196;2022-09-09T20:18:46;13.60;65.00
72604;DHT22;60645;56.968;24.196;2022-09-09T20:21:16;14.10;64.00
72604;DHT22;60645;56.968;24.196;2022-09-09T20:23:43;14.50;62.90
72604;DHT22;60645;56.968;24.196;2022-09-09T20:26:12;14.80;61.30
72604;DHT22;60645;56.968;24.196;2022-09-09T20:28:40;15.00;60.10
72604;DHT22;60645;56.968;24.196;2022-09-09T20:31:13;15.30;59.50
72604;DHT22;60645;56.968;24.196;2022-09-09T20:33:41;15.50;58.40
72604;DHT22;60645;56.968;24.196;2022-09-09T20:36:29;15.60;57.80
72604;DHT22;60645;56.968;24.196;2022-09-09T20:39:19;15.90;57.20
72604;DHT22;60645;56.968;24.196;2022-09-09T20:41:46;16.00;56.80
72604;DHT22;60645;56.968;24.196;2022-09-09T20:44:18;16.10;56.60
72604;DHT22;60645;56.968;24.196;2022-09-09T20:46:47;16.10;56.40
72604;DHT22;60645;56.968;24.196;2022-09-09T20:49:16;16.20;56.30
72604;DHT22;60645;56.968;24.196;2022-09-09T20:51:44;16.30;56.10
72604;DHT22;60645;56.968;24.196;2022-09-09T20:54:17;16.30;55.90
72604;DHT22;60645;56.968;24.196;2022-09-09T20:56:45;16.40;55.90
72604;DHT22;60645;56.968;24.196;2022-09-09T20:59:15;16.40;55.80
72604;DHT22;60645;56.968;24.196;2022-09-09T21:01:42;16.50;55.60
72604;DHT22;60645;56.968;24.196;2022-09-09T21:04:09;16.50;55.70
72604;DHT22;60645;56.968;24.196;2022-09-09T21:06:37;16.50;55.60
72604;DHT22;60645;56.968;24.196;2022-09-09T21:09:04;16.50;55.50
72604;DHT22;60645;56.968;24.196;2022-09-09T21:11:31;16.50;55.30
72604;DHT22;60645;56.968;24.196;2022-09-09T21:14:01;16.70;55.30
72604;DHT22;60645;56.968;24.196;2022-09-09T21:16:28;16.60;55.40
72604;DHT22;60645;56.968;24.196;2022-09-09T21:18:55;16.70;55.30
72604;DHT22;60645;56.968;24.196;2022-09-09T21:21:22;16.70;55.40
72604;DHT22;60645;56.968;24.196;2022-09-09T21:23:52;16.70;55.50
72604;DHT22;60645;56.968;24.196;2022-09-09T21:26:19;16.70;55.30
72604;DHT22;60645;56.968;24.196;2022-09-09T21:28:46;16.60;55.30
72604;DHT22;60645;56.968;24.196;2022-09-09T21:31:17;16.80;55.30
72604;DHT22;60645;56.968;24.196;2022-09-09T21:33:44;16.70;55.40
72604;DHT22;60645;56.968;24.196;2022-09-09T21:36:13;16.70;55.30
72604;DHT22;60645;56.968;24.196;2022-09-09T21:38:41;16.70;55.40
72604;DHT22;60645;56.968;24.196;2022-09-09T21:41:11;16.80;55.30
72604;DHT22;60645;56.968;24.196;2022-09-09T21:43:40;16.80;55.30
72604;DHT22;60645;56.968;24.196;2022-09-09T21:46:12;16.80;55.30
72604;DHT22;60645;56.968;24.196;2022-09-09T21:48:40;16.70;55.30
72604;DHT22;60645;56.968;24.196;2022-09-09T21:51:12;16.80;55.20
72604;DHT22;60645;56.968;24.196;2022-09-09T21:53:40;16.80;55.30
72604;DHT22;60645;56.968;24.196;2022-09-09T21:56:10;16.80;55.30
72604;DHT22;60645;56.968;24.196;2022-09-09T21:58:38;16.80;55.20
72604;DHT22;60645;56.968;24.196;2022-09-09T22:01:11;16.80;55.20
72604;DHT22;60645;56.968;24.196;2022-09-09T22:03:38;16.80;55.30
72604;DHT22;60645;56.968;24.196;2022-09-09T22:06:09;16.80;55.30
72604;DHT22;60645;56.968;24.196;2022-09-09T22:08:36;16.80;55.20
72604;DHT22;60645;56.968;24.196;2022-09-09T22:11:12;16.80;55.30
72604;DHT22;60645;56.968;24.196;2022-09-09T22:13:39;16.80;55.30
72604;DHT22;60645;56.968;24.196;2022-09-09T22:16:10;16.90;55.40
72604;DHT22;60645;56.968;24.196;2022-09-09T22:18:37;16.90;55.40
72604;DHT22;60645;56.968;24.196;2022-09-09T22:21:06;16.80;55.40
72604;DHT22;60645;56.968;24.196;2022-09-09T22:23:33;16.80;55.40
72604;DHT22;60645;56.968;24.196;2022-09-09T22:26:03;16.90;55.50
72604;DHT22;60645;56.968;24.196;2022-09-09T22:28:31;16.90;55.40
72604;DHT22;60645;56.968;24.196;2022-09-09T22:30:58;16.90;55.60
72604;DHT22;60645;56.968;24.196;2022-09-09T22:33:25;16.90;55.60
72604;DHT22;60645;56.968;24.196;2022-09-09T22:35:53;16.80;55.60
72604;DHT22;60645;56.968;24.196;2022-09-09T22:38:20;16.90;55.60
72604;DHT22;60645;56.968;24.196;2022-09-09T22:40:47;16.80;55.60
72604;DHT22;60645;56.968;24.196;2022-09-09T22:43:17;16.90;55.50
72604;DHT22;60645;56.968;24.196;2022-09-09T22:45:45;16.90;55.50
72604;DHT22;60645;56.968;24.196;2022-09-09T22:48:13;16.80;55.60
72604;DHT22;60645;56.968;24.196;2022-09-09T22:50:40;16.90;55.60
72604;DHT22;60645;56.968;24.196;2022-09-09T22:53:09;16.90;55.70
72604;DHT22;60645;56.968;24.196;2022-09-09T22:55:39;16.80;55.60
72604;DHT22;60645;56.968;24.196;2022-09-09T22:58:06;16.90;55.50
72604;DHT22;60645;56.968;24.196;2022-09-09T23:00:33;16.90;55.80
72604;DHT22;60645;56.968;24.196;2022-09-09T23:03:00;16.90;55.80
72604;DHT22;60645;56.968;24.196;2022-09-09T23:05:27;16.90;55.70
72604;DHT22;60645;56.968;24.196;2022-09-09T23:07:54;16.90;55.80
72604;DHT22;60645;56.968;24.196;2022-09-09T23:10:24;17.00;55.80
72604;DHT22;60645;56.968;24.196;2022-09-09T23:12:52;16.90;55.70
72604;DHT22;60645;56.968;24.196;2022-09-09T23:15:19;16.90;55.80
72604;DHT22;60645;56.968;24.196;2022-09-09T23:17:46;16.80;55.80
72604;DHT22;60645;56.968;24.196;2022-09-09T23:20:13;16.90;55.90
72604;DHT22;60645;56.968;24.196;2022-09-09T23:22:40;16.90;55.80
72604;DHT22;60645;56.968;24.196;2022-09-09T23:25:07;16.90;55.90
72604;DHT22;60645;56.968;24.196;2022-09-09T23:27:34;16.90;55.80
72604;DHT22;60645;56.968;24.196;2022-09-09T23:30:04;16.90;56.10
72604;DHT22;60645;56.968;24.196;2022-09-09T23:32:32;16.80;55.80
72604;DHT22;60645;56.968;24.196;2022-09-09T23:34:59;16.90;55.90
72604;DHT22;60645;56.968;24.196;2022-09-09T23:37:26;16.90;55.80
72604;DHT22;60645;56.968;24.196;2022-09-09T23:39:53;16.90;56.00
72604;DHT22;60645;56.968;24.196;2022-09-09T23:42:19;16.90;55.90
72604;DHT22;60645;56.968;24.196;2022-09-09T23:44:46;16.90;55.90
72604;DHT22;60645;56.968;24.196;2022-09-09T23:47:13;16.90;56.20
72604;DHT22;60645;56.968;24.196;2022-09-09T23:49:40;16.90;56.10
72604;DHT22;60645;56.968;24.196;2022-09-09T23:52:07;16.90;56.10
72604;DHT22;60645;56.968;24.196;2022-09-09T23:54:34;16.90;56.30
72604;DHT22;60645;56.968;24.196;2022-09-09T23:57:02;17.00;56.30
72604;DHT22;60645;56.968;24.196;2022-09-09T23:59:30;16.80;56.40
